Time,TemperatureF,DewpointF,PressureIn,WindDirection,WindDirectionDegrees,WindSpeedMPH,WindSpeedGustMPH,Humidity,HourlyPrecipIn,Conditions,Clouds,dailyrainin,SoftwareType,DateUTC
2013-03-20 00:06:00,33.1,30.0,30.23,WSW,247,3.0,8.0,87,0.00,,,0.00,weatherlink.com 1.10,2013-03-20 05:06:00,
2013-03-20 00:21:00,32.7,30.0,30.22,West,271,4.0,9.0,89,0.00,,,0.00,weatherlink.com 1.10,2013-03-20 05:21:00,
2013-03-20 00:36:00,32.4,30.0,30.22,West,268,4.0,7.0,90,0.00,,,0.00,weatherlink.com 1.10,2013-03-20 05:36:00,
2013-03-20 00:51:00,32.1,30.0,30.22,WSW,252,3.0,9.0,91,0.00,,,0.00,weatherlink.com 1.10,2013-03-20 05:51:00,
2013-03-20 01:06:00,32.1,30.0,30.21,West,260,3.0,8.0,92,0.00,,,0.00,weatherlink.com 1.10,2013-03-20 06:06:00,
2013-03-20 01:21:00,32.0,30.0,30.21,WSW,254,4.0,8.0,93,0.00,,,0.00,weatherlink.com 1.10,2013-03-20 06:21:00,
2013-03-20 01:36:00,31.6,30.0,30.21,West,275,3.0,7.0,93,0.00,,,0.00,weatherlink.com 1.10,2013-03-20 06:36:00,
2013-03-20 01:51:00,31.5,30.0,30.21,WSW,242,4.0,8.0,93,0.00,,,0.00,weatherlink.com 1.10,2013-03-20 06:51:00,
2013-03-20 02:07:00,31.3,30.0,30.21,WSW,240,3.0,7.0,94,0.00,,,0.00,weatherlink.com 1.10,2013-03-20 07:07:00,
2013-03-20 02:37:00,31.1,30.0,30.22,West,271,4.0,8.0,94,0.00,,,0.00,weatherlink.com 1.10,2013-03-20 07:37:00,
2013-03-20 02:52:00,31.0,30.0,30.22,WSW,255,5.0,10.0,94,0.00,,,0.00,weatherlink.com 1.10,2013-03-20 07:52:00,
2013-03-20 03:07:00,31.4,30.0,30.22,WNW,286,5.0,11.0,95,0.00,,,0.00,weatherlink.com 1.10,2013-03-20 08:07:00,
2013-03-20 03:22:00,31.7,31.0,30.22,WNW,292,3.0,9.0,95,0.00,,,0.00,weatherlink.com 1.10,2013-03-20 08:22:00,
2013-03-20 03:37:00,31.8,30.0,30.22,WNW,287,7.0,9.0,94,0.00,,,0.00,weatherlink.com 1.10,2013-03-20 08:37:00,
2013-03-20 03:52:00,31.7,30.0,30.22,NW,304,5.0,7.0,94,0.00,,,0.00,weatherlink.com 1.10,2013-03-20 08:52:00,
2013-03-20 04:07:00,31.5,30.0,30.22,WNW,289,5.0,8.0,93,0.00,,,0.00,weatherlink.com 1.10,2013-03-20 09:07:00,
2013-03-20 04:22:00,30.9,29.0,30.22,NW,315,4.0,6.0,93,0.00,,,0.00,weatherlink.com 1.10,2013-03-20 09:22:00,
2013-03-20 04:37:00,30.3,29.0,30.22,WNW,285,3.0,8.0,93,0.00,,,0.00,weatherlink.com 1.10,2013-03-20 09:37:00,
2013-03-20 04:52:00,29.9,28.0,30.22,North,355,3.0,5.0,92,0.00,,,0.00,weatherlink.com 1.10,2013-03-20 09:52:00,
2013-03-20 05:07:00,29.2,27.0,30.23,NW,319,0.0,5.0,91,0.00,,,0.00,weatherlink.com 1.10,2013-03-20 10:07:00,
2013-03-20 05:22:00,28.5,26.0,30.23,NW,305,3.0,5.0,89,0.00,,,0.00,weatherlink.com 1.10,2013-03-20 10:22:00,
2013-03-20 05:37:00,28.1,26.0,30.23,NW,309,4.0,8.0,90,0.00,,,0.00,weatherlink.com 1.10,2013-03-20 10:37:00,
2013-03-20 05:52:00,28.1,25.0,30.24,NNW,331,2.0,7.0,88,0.00,,,0.00,weatherlink.com 1.10,2013-03-20 10:52:00,
2013-03-20 06:07:00,28.0,24.0,30.25,NW,306,9.0,14.0,84,0.00,,,0.00,weatherlink.com 1.10,2013-03-20 11:07:00,
2013-03-20 06:22:00,27.7,23.0,30.25,NNW,341,11.0,13.0,81,0.00,,,0.00,weatherlink.com 1.10,2013-03-20 11:22:00,
2013-03-20 06:37:00,27.2,22.0,30.27,NNW,333,7.0,15.0,79,0.00,,,0.00,weatherlink.com 1.10,2013-03-20 11:37:00,
2013-03-20 06:52:00,26.7,21.0,30.27,NW,326,9.0,17.0,80,0.00,,,0.00,weatherlink.com 1.10,2013-03-20 11:52:00,
2013-03-20 07:07:00,26.5,21.0,30.27,West,281,5.0,16.0,78,0.00,,,0.00,weatherlink.com 1.10,2013-03-20 12:07:00,
2013-03-20 07:22:00,26.4,20.0,30.28,NW,318,8.0,19.0,78,0.00,,,0.00,weatherlink.com 1.10,2013-03-20 12:22:00,
2013-03-20 07:37:00,26.5,21.0,30.29,NNW,343,11.0,15.0,79,0.00,,,0.00,weatherlink.com 1.10,2013-03-20 12:37:00,
2013-03-20 07:52:00,26.7,21.0,30.30,NW,312,10.0,15.0,78,0.00,,,0.00,weatherlink.com 1.10,2013-03-20 12:52:00,
2013-03-20 08:07:00,26.8,21.0,30.30,WNW,300,11.0,17.0,78,0.00,,,0.00,weatherlink.com 1.10,2013-03-20 13:07:00,
2013-03-20 08:22:00,26.9,21.0,30.31,NW,314,9.0,10.0,78,0.00,,,0.00,weatherlink.com 1.10,2013-03-20 13:22:00,
2013-03-20 08:37:00,27.3,21.0,30.30,North,5,4.0,12.0,78,0.00,,,0.00,weatherlink.com 1.10,2013-03-20 13:37:00,
2013-03-20 09:07:00,27.2,21.0,30.30,WNW,302,5.0,17.0,76,0.00,,,0.00,weatherlink.com 1.10,2013-03-20 14:07:00,
2013-03-20 09:23:00,29.3,22.0,30.31,NW,306,5.0,13.0,73,0.00,,,0.00,weatherlink.com 1.10,2013-03-20 14:23:00,
2013-03-20 09:38:00,28.9,21.0,30.31,WNW,301,6.0,17.0,71,0.00,,,0.00,weatherlink.com 1.10,2013-03-20 14:38:00,
2013-03-20 09:53:00,27.5,20.0,30.31,WNW,296,9.0,13.0,73,0.00,,,0.00,weatherlink.com 1.10,2013-03-20 14:53:00,
2013-03-20 10:08:00,29.8,20.0,30.31,WNW,297,9.0,16.0,67,0.00,,,0.00,weatherlink.com 1.10,2013-03-20 15:08:00,
2013-03-20 10:23:00,28.5,18.0,30.31,WNW,283,10.0,18.0,64,0.00,,,0.00,weatherlink.com 1.10,2013-03-20 15:23:00,
2013-03-20 10:38:00,29.4,18.0,30.31,West,279,11.0,16.0,63,0.00,,,0.00,weatherlink.com 1.10,2013-03-20 15:38:00,
2013-03-20 10:53:00,29.1,17.0,30.32,WNW,293,9.0,17.0,60,0.00,,,0.00,weatherlink.com 1.10,2013-03-20 15:53:00,
2013-03-20 11:08:00,29.9,17.0,30.32,NW,309,6.0,17.0,58,0.00,,,0.00,weatherlink.com 1.10,2013-03-20 16:08:00,
2013-03-20 11:23:00,30.4,17.0,30.32,NW,315,7.0,15.0,57,0.00,,,0.00,weatherlink.com 1.10,2013-03-20 16:23:00,
2013-03-20 11:38:00,30.0,16.0,30.32,NW,309,10.0,19.0,57,0.00,,,0.00,weatherlink.com 1.10,2013-03-20 16:38:00,
2013-03-20 11:53:00,31.0,18.0,30.31,West,275,10.0,15.0,58,0.00,,,0.00,weatherlink.com 1.10,2013-03-20 16:53:00,
2013-03-20 12:08:00,30.9,16.0,30.30,NW,305,6.0,16.0,55,0.00,,,0.00,weatherlink.com 1.10,2013-03-20 17:08:00,
2013-03-20 12:23:00,30.8,15.0,30.31,WNW,293,15.0,17.0,53,0.00,,,0.00,weatherlink.com 1.10,2013-03-20 17:23:00,
2013-03-20 12:38:00,32.0,16.0,30.30,WNW,294,6.0,16.0,52,0.00,,,0.00,weatherlink.com 1.10,2013-03-20 17:38:00,
2013-03-20 12:53:00,32.9,16.0,30.30,West,279,9.0,19.0,50,0.00,,,0.00,weatherlink.com 1.10,2013-03-20 17:53:00,
2013-03-20 13:08:00,32.5,16.0,30.29,WNW,298,8.0,14.0,51,0.00,,,0.00,weatherlink.com 1.10,2013-03-20 18:08:00,
2013-03-20 13:23:00,32.7,16.0,30.29,NW,325,6.0,16.0,51,0.00,,,0.00,weatherlink.com 1.10,2013-03-20 18:23:00,
2013-03-20 13:38:00,32.3,15.0,30.28,WNW,284,8.0,15.0,50,0.00,,,0.00,weatherlink.com 1.10,2013-03-20 18:38:00,
2013-03-20 13:53:00,32.3,16.0,30.28,WNW,302,9.0,18.0,52,0.00,,,0.00,weatherlink.com 1.10,2013-03-20 18:53:00,
2013-03-20 14:09:00,33.4,16.0,30.27,NW,307,12.0,18.0,49,0.00,,,0.00,weatherlink.com 1.10,2013-03-20 19:09:00,
2013-03-20 14:23:00,32.5,16.0,30.26,West,280,5.0,14.0,50,0.00,,,0.00,weatherlink.com 1.10,2013-03-20 19:23:00,
2013-03-20 14:38:00,33.7,14.0,30.26,NNW,331,7.0,19.0,45,0.00,,,0.00,weatherlink.com 1.10,2013-03-20 19:38:00,
2013-03-20 14:53:00,35.0,15.0,30.25,West,277,8.0,16.0,45,0.00,,,0.00,weatherlink.com 1.10,2013-03-20 19:53:00,
2013-03-20 15:08:00,34.6,16.0,30.24,NW,314,7.0,19.0,46,0.00,,,0.00,weatherlink.com 1.10,2013-03-20 20:08:00,
2013-03-20 15:23:00,34.3,14.0,30.24,NW,319,8.0,20.0,44,0.00,,,0.00,weatherlink.com 1.10,2013-03-20 20:23:00,
2013-03-20 15:38:00,34.2,14.0,30.23,WNW,290,9.0,16.0,44,0.00,,,0.00,weatherlink.com 1.10,2013-03-20 20:38:00,
2013-03-20 15:53:00,33.8,14.0,30.22,WNW,286,5.0,16.0,44,0.00,,,0.00,weatherlink.com 1.10,2013-03-20 20:53:00,
2013-03-20 16:08:00,34.2,15.0,30.22,NW,308,5.0,23.0,46,0.00,,,0.00,weatherlink.com 1.10,2013-03-20 21:08:00,
2013-03-20 16:23:00,33.9,12.0,30.22,NW,317,5.0,16.0,41,0.00,,,0.00,weatherlink.com 1.10,2013-03-20 21:23:00,
2013-03-20 16:38:00,34.0,13.0,30.21,WNW,296,6.0,16.0,42,0.00,,,0.00,weatherlink.com 1.10,2013-03-20 21:38:00,
2013-03-20 16:53:00,33.4,13.0,30.21,West,273,7.0,16.0,43,0.00,,,0.00,weatherlink.com 1.10,2013-03-20 21:53:00,
2013-03-20 17:08:00,33.3,13.0,30.21,WNW,301,7.0,16.0,44,0.00,,,0.00,weatherlink.com 1.10,2013-03-20 22:08:00,
2013-03-20 17:23:00,33.2,14.0,30.20,West,270,5.0,16.0,45,0.00,,,0.00,weatherlink.com 1.10,2013-03-20 22:23:00,
2013-03-20 17:38:00,32.9,13.0,30.20,WNW,294,12.0,14.0,44,0.00,,,0.00,weatherlink.com 1.10,2013-03-20 22:38:00,
2013-03-20 17:53:00,32.4,13.0,30.20,NNW,342,10.0,15.0,45,0.00,,,0.00,weatherlink.com 1.10,2013-03-20 22:53:00,
2013-03-20 18:08:00,32.1,12.0,30.20,West,279,8.0,15.0,43,0.00,,,0.00,weatherlink.com 1.10,2013-03-20 23:08:00,
2013-03-20 18:23:00,31.8,11.0,30.19,NW,308,13.0,14.0,42,0.00,,,0.00,weatherlink.com 1.10,2013-03-20 23:23:00,
2013-03-20 18:38:00,31.1,11.0,30.19,NW,307,5.0,13.0,44,0.00,,,0.00,weatherlink.com 1.10,2013-03-20 23:38:00,
2013-03-20 18:53:00,30.6,12.0,30.19,WNW,291,6.0,11.0,46,0.00,,,0.00,weatherlink.com 1.10,2013-03-20 23:53:00,
2013-03-20 19:08:00,29.8,12.0,30.19,WNW,288,10.0,10.0,48,0.00,,,0.00,weatherlink.com 1.10,2013-03-21 00:08:00,
2013-03-20 19:23:00,29.0,12.0,30.19,WNW,284,3.0,6.0,49,0.00,,,0.00,weatherlink.com 1.10,2013-03-21 00:23:00,
2013-03-20 19:38:00,28.5,11.0,30.18,WNW,300,2.0,9.0,49,0.00,,,0.00,weatherlink.com 1.10,2013-03-21 00:38:00,
2013-03-20 19:53:00,27.9,12.0,30.18,NW,313,2.0,5.0,51,0.00,,,0.00,weatherlink.com 1.10,2013-03-21 00:53:00,
2013-03-20 20:08:00,27.2,12.0,30.17,WNW,289,4.0,4.0,52,0.00,,,0.00,weatherlink.com 1.10,2013-03-21 01:08:00,
2013-03-20 20:23:00,26.5,12.0,30.17,NW,313,1.0,5.0,55,0.00,,,0.00,weatherlink.com 1.10,2013-03-21 01:23:00,
2013-03-20 20:38:00,26.2,12.0,30.17,NW,304,2.0,4.0,55,0.00,,,0.00,weatherlink.com 1.10,2013-03-21 01:38:00,
2013-03-20 20:53:00,26.3,12.0,30.17,WNW,287,2.0,3.0,55,0.00,,,0.00,weatherlink.com 1.10,2013-03-21 01:53:00,
2013-03-20 21:08:00,26.2,11.0,30.17,WNW,284,2.0,3.0,54,0.00,,,0.00,weatherlink.com 1.10,2013-03-21 02:08:00,
2013-03-20 21:24:00,25.8,12.0,30.16,WNW,290,2.0,4.0,55,0.00,,,0.00,weatherlink.com 1.10,2013-03-21 02:24:00,
2013-03-20 21:39:00,25.4,12.0,30.16,WNW,290,1.0,2.0,56,0.00,,,0.00,weatherlink.com 1.10,2013-03-21 02:39:00,
2013-03-20 21:54:00,24.9,11.0,30.15,NW,308,2.0,3.0,57,0.00,,,0.00,weatherlink.com 1.10,2013-03-21 02:54:00,
2013-03-20 22:09:00,24.4,11.0,30.16,NW,310,1.0,4.0,58,0.00,,,0.00,weatherlink.com 1.10,2013-03-21 03:09:00,
2013-03-20 22:24:00,24.0,11.0,30.15,NW,314,2.0,3.0,59,0.00,,,0.00,weatherlink.com 1.10,2013-03-21 03:24:00,
2013-03-20 22:39:00,24.1,12.0,30.16,WNW,290,2.0,4.0,60,0.00,,,0.00,weatherlink.com 1.10,2013-03-21 03:39:00,
2013-03-20 22:54:00,24.2,12.0,30.16,WNW,290,2.0,4.0,60,0.00,,,0.00,weatherlink.com 1.10,2013-03-21 03:54:00,
2013-03-20 23:09:00,23.8,12.0,30.16,West,281,2.0,5.0,61,0.00,,,0.00,weatherlink.com 1.10,2013-03-21 04:09:00,
2013-03-20 23:24:00,23.9,11.0,30.16,WNW,293,2.0,4.0,59,0.00,,,0.00,weatherlink.com 1.10,2013-03-21 04:24:00,
2013-03-20 23:39:00,23.2,11.0,30.16,WNW,293,1.0,3.0,60,0.00,,,0.00,weatherlink.com 1.10,2013-03-21 04:39:00,
2013-03-20 23:54:00,23.1,11.0,30.15,WNW,293,2.0,4.0,61,0.00,,,0.00,weatherlink.com 1.10,2013-03-21 04:54:00,